Terminal Aerodrome Forecast
Issued by NWS

Home | Current Version | Previous Version | Graphics & Text | Print | Product List | Glossary On
Versions: 1 2 3 4 5 6 7 8 9 10 11 12 13 14 15
000
FTUS43 KGRB 141700
TAFAUW
TAF
KAUW 141737Z 1418/1518 24012G21KT P6SM BKN060
      TEMPO 1418/1420 BKN028
     FM150000 25005KT P6SM FEW045 BKN150
     FM150700 23003KT P6SM VCSH BKN080
     FM151600 29007KT P6SM BKN030=

USA.gov is the U.S. government's official web portal to all federal, state and local government web resources and services.